createdAt,value
2022-09-12T00:00:22.766Z,13.03
2022-09-12T00:01:22.809Z,13.05
2022-09-12T00:02:22.746Z,13.03
2022-09-12T00:03:22.695Z,12.97
2022-09-12T00:04:22.732Z,12.90
2022-09-12T00:05:22.632Z,12.94
2022-09-12T00:06:23.371Z,12.90
2022-09-12T00:07:22.581Z,12.90
2022-09-12T00:08:22.547Z,12.83
2022-09-12T00:09:22.526Z,12.90
2022-09-12T00:10:22.555Z,12.82
2022-09-12T00:11:22.412Z,12.78
2022-09-12T00:12:22.400Z,12.80
2022-09-12T00:13:22.382Z,12.78
2022-09-12T00:14:22.359Z,12.75
2022-09-12T00:15:22.351Z,12.79
2022-09-12T00:16:22.427Z,12.79
2022-09-12T00:17:22.243Z,12.72
2022-09-12T00:18:22.224Z,12.61
2022-09-12T00:19:22.171Z,12.64
2022-09-12T00:20:22.150Z,12.58
2022-09-12T00:21:22.113Z,12.49
2022-09-12T00:22:22.187Z,12.65
2022-09-12T00:23:22.036Z,12.55
2022-09-12T00:24:22.074Z,12.54
2022-09-12T00:25:21.977Z,12.58
2022-09-12T00:26:22.017Z,12.57
2022-09-12T00:27:21.908Z,12.47
2022-09-12T00:28:21.873Z,12.58
2022-09-12T00:29:21.843Z,12.46
2022-09-12T00:30:21.814Z,12.46
2022-09-12T00:31:21.937Z,12.46
2022-09-12T00:32:21.761Z,12.43
2022-09-12T00:33:21.796Z,12.47
2022-09-12T00:34:21.702Z,12.42
2022-09-12T00:35:21.678Z,12.39
2022-09-12T00:36:21.684Z,12.46
2022-09-12T00:37:21.627Z,12.35
2022-09-12T00:38:21.573Z,12.28
2022-09-12T00:39:21.538Z,12.36
2022-09-12T00:40:21.498Z,12.36
2022-09-12T00:41:23.449Z,12.29
2022-09-12T00:42:21.443Z,12.32
2022-09-12T00:43:21.462Z,12.29
2022-09-12T00:44:21.433Z,12.32
2022-09-12T00:45:21.357Z,12.17
2022-09-12T00:46:21.310Z,12.13
2022-09-12T00:47:21.378Z,12.13
2022-09-12T00:48:21.257Z,12.13
2022-09-12T00:49:21.221Z,12.18
2022-09-12T00:50:21.198Z,12.22
2022-09-12T00:51:21.165Z,12.15
2022-09-12T00:52:21.128Z,12.15
2022-09-12T00:53:21.156Z,12.17
2022-09-12T00:54:21.074Z,12.15
2022-09-12T00:55:21.012Z,12.20
2022-09-12T00:56:20.988Z,12.13
2022-09-12T00:57:20.967Z,12.17
2022-09-12T00:58:20.938Z,12.10
2022-09-12T00:59:20.981Z,12.04
2022-09-12T01:00:20.868Z,12.10
2022-09-12T01:01:20.877Z,12.10
2022-09-12T01:02:20.820Z,12.18
2022-09-12T01:03:20.756Z,12.09
2022-09-12T01:04:20.803Z,12.09
2022-09-12T01:05:20.763Z,12.04
2022-09-12T01:06:20.695Z,12.07
2022-09-12T01:07:20.650Z,11.99
2022-09-12T01:08:20.601Z,11.95
2022-09-12T01:09:20.588Z,11.94
2022-09-12T01:10:20.877Z,11.94
2022-09-12T01:11:20.510Z,11.94
2022-09-12T01:12:20.486Z,11.91
2022-09-12T01:13:20.443Z,11.99
2022-09-12T01:14:20.431Z,11.77
2022-09-12T01:15:20.383Z,11.80
2022-09-12T01:16:20.452Z,11.83
2022-09-12T01:17:20.348Z,11.75
2022-09-12T01:18:20.306Z,11.80
2022-09-12T01:19:20.246Z,11.72
2022-09-12T01:20:20.217Z,11.69
2022-09-12T01:21:20.259Z,11.73
2022-09-12T01:22:20.162Z,11.72
2022-09-12T01:23:20.118Z,11.65
2022-09-12T01:24:20.088Z,11.65
2022-09-12T01:25:20.086Z,11.59
2022-09-12T01:26:20.038Z,11.51
2022-09-12T01:27:20.048Z,11.52
2022-09-12T01:28:19.957Z,11.47
2022-09-12T01:29:19.924Z,11.55
2022-09-12T01:30:19.918Z,11.45
2022-09-12T01:31:19.862Z,11.48
2022-09-12T01:32:19.945Z,11.48
2022-09-12T01:33:19.848Z,11.47
2022-09-12T01:34:19.828Z,11.52
2022-09-12T01:35:19.719Z,11.50
2022-09-12T01:36:19.721Z,11.47
2022-09-12T01:37:19.665Z,11.44
2022-09-12T01:38:19.713Z,11.44
2022-09-12T01:39:19.610Z,11.36
2022-09-12T01:40:19.565Z,11.40
2022-09-12T01:41:20.416Z,11.36
2022-09-12T01:42:19.566Z,11.37
2022-09-12T01:43:19.457Z,11.32
2022-09-12T01:44:20.043Z,11.27
2022-09-12T01:45:20.283Z,11.30
2022-09-12T01:46:19.368Z,11.29
2022-09-12T01:47:19.339Z,11.23
2022-09-12T01:48:19.333Z,11.19
2022-09-12T01:49:19.628Z,11.18
2022-09-12T01:50:19.329Z,11.26
2022-09-12T01:51:19.201Z,11.15
2022-09-12T01:52:19.238Z,11.12
2022-09-12T01:53:19.189Z,11.19
2022-09-12T01:54:19.132Z,11.23
2022-09-12T01:55:19.135Z,11.12
2022-09-12T01:56:19.059Z,11.15
2022-09-12T01:57:19.047Z,11.10
2022-09-12T01:58:18.982Z,11.14
2022-09-12T01:59:19.016Z,11.11
2022-09-12T02:00:19.089Z,11.12
2022-09-12T02:01:18.929Z,11.17
2022-09-12T02:02:18.890Z,11.12
2022-09-12T02:03:18.814Z,11.04
2022-09-12T02:04:18.847Z,11.02
2022-09-12T02:05:19.123Z,11.07
2022-09-12T02:06:18.729Z,11.11
2022-09-12T02:07:18.710Z,11.26
2022-09-12T02:08:18.677Z,11.19
2022-09-12T02:09:18.632Z,11.30
2022-09-12T02:10:18.587Z,11.23
2022-09-12T02:11:18.640Z,11.23
2022-09-12T02:12:18.536Z,11.26
2022-09-12T02:13:18.495Z,11.26
2022-09-12T02:14:18.502Z,11.22
2022-09-12T02:15:18.419Z,11.26
2022-09-12T02:16:18.510Z,11.26
2022-09-12T02:17:18.354Z,11.23
2022-09-12T02:18:18.382Z,11.18
2022-09-12T02:19:18.322Z,11.19
2022-09-12T02:20:44.046Z,11.14
2022-09-12T02:21:18.248Z,11.11
2022-09-12T02:22:18.478Z,11.17
2022-09-12T02:23:18.163Z,11.08
2022-09-12T02:24:18.137Z,11.17
2022-09-12T02:25:18.104Z,11.11
2022-09-12T02:26:18.087Z,11.02
2022-09-12T02:27:18.793Z,11.07
2022-09-12T02:28:18.119Z,10.90
2022-09-12T02:29:17.992Z,10.97
2022-09-12T02:30:17.938Z,10.92
2022-09-12T02:31:17.915Z,10.94
2022-09-12T02:32:17.961Z,10.87
2022-09-12T02:33:17.869Z,10.90
2022-09-12T02:34:17.917Z,10.96
2022-09-12T02:35:17.797Z,10.87
2022-09-12T02:36:17.763Z,10.81
2022-09-12T02:37:17.787Z,10.72
2022-09-12T02:38:17.736Z,10.87
2022-09-12T02:39:17.657Z,10.74
2022-09-12T02:40:17.722Z,10.71
2022-09-12T02:41:23.295Z,10.81
2022-09-12T02:42:17.619Z,10.81
2022-09-12T02:43:17.540Z,10.72
2022-09-12T02:44:17.483Z,10.75
2022-09-12T02:45:17.472Z,10.71
2022-09-12T02:46:17.440Z,10.81
2022-09-12T02:47:17.468Z,10.76
2022-09-12T02:48:17.363Z,10.89
2022-09-12T02:49:17.336Z,10.78
2022-09-12T02:50:17.273Z,10.87
2022-09-12T02:51:20.385Z,10.89
2022-09-12T02:52:17.224Z,10.79
2022-09-12T02:53:17.264Z,10.92
2022-09-12T02:54:17.152Z,10.92
2022-09-12T02:55:17.120Z,10.82
2022-09-12T02:56:17.120Z,10.72
2022-09-12T02:57:21.867Z,10.71
2022-09-12T02:58:17.077Z,10.81
2022-09-12T02:59:17.049Z,10.75
2022-09-12T03:00:17.027Z,10.60
2022-09-12T03:01:21.848Z,10.64
2022-09-12T03:02:16.916Z,10.59
2022-09-12T03:03:16.857Z,10.69
2022-09-12T03:04:16.875Z,10.60
2022-09-12T03:05:16.788Z,10.68
2022-09-12T03:06:16.760Z,10.61
2022-09-12T03:07:16.855Z,10.67
2022-09-12T03:08:17.306Z,10.67
2022-09-12T03:09:16.721Z,10.71
2022-09-12T03:10:16.653Z,10.63
2022-09-12T03:11:16.589Z,10.63
2022-09-12T03:12:16.559Z,10.56
2022-09-12T03:13:16.546Z,10.56
2022-09-12T03:14:16.582Z,10.57
2022-09-12T03:15:16.466Z,10.49
2022-09-12T03:16:16.499Z,10.51
2022-09-12T03:17:16.415Z,10.42
2022-09-12T03:18:16.383Z,10.35
2022-09-12T03:19:16.397Z,10.40
2022-09-12T03:20:16.349Z,10.35
2022-09-12T03:21:16.263Z,10.42
2022-09-12T03:22:16.221Z,10.41
2022-09-12T03:23:16.222Z,10.46
2022-09-12T03:24:16.158Z,10.46
2022-09-12T03:25:16.180Z,10.44
2022-09-12T03:26:16.143Z,10.33
2022-09-12T03:27:16.067Z,10.33
2022-09-12T03:28:16.039Z,10.28
2022-09-12T03:29:16.001Z,10.33
2022-09-12T03:30:16.054Z,10.33
2022-09-12T03:31:15.925Z,10.40
2022-09-12T03:32:15.891Z,10.38
2022-09-12T03:33:15.859Z,10.44
2022-09-12T03:34:15.820Z,10.41
2022-09-12T03:35:17.938Z,10.44
2022-09-12T03:36:15.865Z,10.41
2022-09-12T03:37:15.800Z,10.46
2022-09-12T03:38:15.699Z,10.46
2022-09-12T03:39:15.657Z,10.42
2022-09-12T03:40:15.671Z,10.30
2022-09-12T03:41:15.657Z,10.35
2022-09-12T03:42:15.618Z,10.40
2022-09-12T03:43:15.521Z,10.33
2022-09-12T03:44:15.486Z,10.34
2022-09-12T03:45:15.465Z,10.35
2022-09-12T03:46:15.435Z,10.28
2022-09-12T03:47:15.449Z,10.28
2022-09-12T03:48:15.419Z,10.26
2022-09-12T03:49:15.336Z,10.22
2022-09-12T03:50:15.303Z,10.28
2022-09-12T03:51:15.260Z,10.28
2022-09-12T03:52:15.230Z,10.26
2022-09-12T03:53:17.258Z,10.19
2022-09-12T03:54:15.222Z,10.28
2022-09-12T03:55:15.144Z,10.10
2022-09-12T03:56:15.096Z,10.12
2022-09-12T03:57:15.059Z,10.13
2022-09-12T03:58:15.032Z,10.22
2022-09-12T03:59:15.064Z,10.26
2022-09-12T04:00:19.608Z,10.15
2022-09-12T04:01:15.009Z,10.17
2022-09-12T04:02:14.932Z,10.26
2022-09-12T04:03:14.863Z,10.23
2022-09-12T04:04:14.838Z,10.20
2022-09-12T04:05:14.877Z,10.28
2022-09-12T04:06:14.762Z,10.26
2022-09-12T04:07:14.733Z,10.26
2022-09-12T04:08:14.699Z,10.33
2022-09-12T04:09:14.667Z,10.26
2022-09-12T04:10:16.211Z,10.26
2022-09-12T04:11:14.679Z,10.30
2022-09-12T04:12:14.567Z,10.28
2022-09-12T04:13:14.535Z,10.28
2022-09-12T04:14:14.498Z,10.26
2022-09-12T04:15:14.473Z,10.37
2022-09-12T04:16:14.482Z,10.25
2022-09-12T04:17:14.454Z,10.30
2022-09-12T04:18:14.370Z,10.25
2022-09-12T04:19:14.330Z,10.15
2022-09-12T04:20:14.337Z,10.20
2022-09-12T04:21:14.269Z,10.17
2022-09-12T04:22:14.304Z,10.17
2022-09-12T04:23:14.276Z,10.19
2022-09-12T04:24:14.338Z,10.16
2022-09-12T04:25:14.134Z,10.19
2022-09-12T04:26:14.123Z,10.10
2022-09-12T04:27:14.072Z,10.13
2022-09-12T04:28:14.089Z,10.04
2022-09-12T04:29:14.002Z,10.15
2022-09-12T04:30:13.975Z,10.13
2022-09-12T04:31:13.961Z,10.15
2022-09-12T04:32:13.915Z,10.12
2022-09-12T04:33:14.073Z,10.10
2022-09-12T04:34:13.850Z,9.99
2022-09-12T04:35:13.822Z,10.17
2022-09-12T04:36:13.780Z,10.02
2022-09-12T04:37:13.736Z,10.02
2022-09-12T04:38:13.707Z,10.04
2022-09-12T04:39:13.779Z,10.01
2022-09-12T04:40:13.680Z,10.04
2022-09-12T04:41:13.612Z,9.99
2022-09-12T04:42:13.576Z,10.04
2022-09-12T04:43:14.647Z,9.97
2022-09-12T04:44:13.510Z,9.95
2022-09-12T04:45:13.529Z,9.95
2022-09-12T04:46:13.456Z,9.94
2022-09-12T04:47:13.410Z,9.98
2022-09-12T04:48:13.446Z,9.99
2022-09-12T04:49:13.340Z,9.98
2022-09-12T04:50:13.307Z,9.97
2022-09-12T04:51:13.275Z,9.89
2022-09-12T04:52:13.236Z,9.91
2022-09-12T04:53:13.204Z,9.94
2022-09-12T04:54:13.253Z,9.94
2022-09-12T04:55:13.139Z,9.99
2022-09-12T04:56:13.108Z,10.05
2022-09-12T04:57:13.070Z,10.05
2022-09-12T04:58:13.035Z,10.16
2022-09-12T04:59:13.015Z,10.22
2022-09-12T05:00:13.220Z,10.16
2022-09-12T05:01:13.001Z,10.12
2022-09-12T05:02:12.934Z,10.17
2022-09-12T05:03:12.891Z,10.17
2022-09-12T05:04:12.842Z,10.17
2022-09-12T05:05:12.821Z,10.22
2022-09-12T05:06:12.884Z,10.16
2022-09-12T05:07:12.742Z,10.17
2022-09-12T05:08:12.710Z,10.20
2022-09-12T05:09:12.694Z,10.17
2022-09-12T05:10:12.647Z,10.12
2022-09-12T05:11:12.608Z,10.17
2022-09-12T05:12:12.621Z,10.15
2022-09-12T05:13:12.540Z,10.16
2022-09-12T05:14:12.515Z,10.25
2022-09-12T05:15:12.534Z,10.19
2022-09-12T05:16:12.489Z,10.20
2022-09-12T05:17:12.500Z,10.23
2022-09-12T05:18:12.377Z,10.19
2022-09-12T05:19:12.346Z,10.30
2022-09-12T05:20:12.311Z,10.34
2022-09-12T05:21:12.273Z,10.31
2022-09-12T05:22:12.244Z,10.34
2022-09-12T05:23:12.283Z,10.41
2022-09-12T05:24:12.186Z,10.41
2022-09-12T05:25:12.142Z,10.46
2022-09-12T05:26:12.113Z,10.49
2022-09-12T05:27:12.079Z,10.48
2022-09-12T05:28:12.201Z,10.49
2022-09-12T05:29:12.009Z,10.53
2022-09-12T05:30:11.974Z,10.48
2022-09-12T05:31:11.988Z,10.57
2022-09-12T05:32:11.908Z,10.54
2022-09-12T05:33:11.876Z,10.53
2022-09-12T05:34:12.278Z,10.63
2022-09-12T05:35:11.827Z,10.57
2022-09-12T05:36:11.770Z,10.63
2022-09-12T05:37:11.747Z,10.60
2022-09-12T05:38:11.711Z,10.69
2022-09-12T05:39:11.726Z,10.61
2022-09-12T05:40:12.053Z,10.60
2022-09-12T05:41:16.937Z,10.68
2022-09-12T05:42:11.590Z,10.68
2022-09-12T05:43:11.547Z,10.76
2022-09-12T05:44:11.512Z,10.76
2022-09-12T05:45:11.486Z,10.87
2022-09-12T05:46:11.558Z,10.81
2022-09-12T05:47:11.415Z,10.96
2022-09-12T05:48:11.397Z,11.00
2022-09-12T05:49:11.418Z,11.05
2022-09-12T05:50:11.309Z,11.11
2022-09-12T05:51:11.287Z,11.10
2022-09-12T05:52:11.294Z,11.23
2022-09-12T05:53:11.288Z,11.25
2022-09-12T05:54:11.261Z,11.32
2022-09-12T05:55:11.152Z,11.45
2022-09-12T05:56:11.187Z,11.48
2022-09-12T05:57:11.084Z,11.57
2022-09-12T05:58:11.056Z,11.63
2022-09-12T05:59:11.080Z,11.70
2022-09-12T06:00:10.990Z,11.94
2022-09-12T06:01:10.994Z,11.91
2022-09-12T06:02:10.983Z,12.03
2022-09-12T06:03:10.891Z,11.94
2022-09-12T06:04:12.562Z,12.02
2022-09-12T06:05:10.827Z,12.20
2022-09-12T06:06:10.793Z,12.20
2022-09-12T06:07:10.760Z,12.20
2022-09-12T06:08:10.736Z,12.21
2022-09-12T06:09:10.699Z,12.31
2022-09-12T06:10:10.717Z,12.25
2022-09-12T06:11:10.635Z,12.28
2022-09-12T06:12:10.606Z,12.29
2022-09-12T06:13:10.615Z,12.27
2022-09-12T06:14:10.537Z,12.35
2022-09-12T06:15:12.342Z,12.28
2022-09-12T06:16:11.357Z,12.31
2022-09-12T06:17:10.442Z,12.37
2022-09-12T06:18:10.411Z,12.43
2022-09-12T06:19:10.376Z,12.47
2022-09-12T06:20:10.337Z,12.45
2022-09-12T06:21:10.436Z,12.53
2022-09-12T06:22:10.844Z,12.53
2022-09-12T06:23:10.244Z,12.55
2022-09-12T06:24:10.212Z,12.60
2022-09-12T06:25:10.183Z,12.64
2022-09-12T06:26:10.148Z,12.68
2022-09-12T06:27:10.173Z,12.75
2022-09-12T06:28:10.081Z,12.79
2022-09-12T06:29:10.058Z,12.73
2022-09-12T06:30:10.020Z,12.80
2022-09-12T06:31:10.010Z,12.85
2022-09-12T06:32:10.022Z,12.87
2022-09-12T06:33:09.972Z,12.93
2022-09-12T06:34:09.913Z,13.01
2022-09-12T06:35:09.884Z,13.05
2022-09-12T06:36:12.344Z,13.13
2022-09-12T06:37:09.840Z,13.12
2022-09-12T06:38:09.858Z,13.18
2022-09-12T06:39:09.734Z,13.22
2022-09-12T06:40:09.775Z,13.16
2022-09-12T06:41:09.681Z,13.15
2022-09-12T06:42:09.644Z,13.19
2022-09-12T06:43:09.623Z,13.23
2022-09-12T06:44:09.652Z,13.31
2022-09-12T06:45:09.550Z,13.42
2022-09-12T06:46:09.560Z,13.39
2022-09-12T06:47:09.479Z,13.38
2022-09-12T06:48:09.447Z,13.49
2022-09-12T06:49:09.415Z,13.44
2022-09-12T06:50:09.445Z,13.44
2022-09-12T06:51:09.350Z,13.46
2022-09-12T06:52:09.317Z,13.52
2022-09-12T06:53:09.285Z,13.49
2022-09-12T06:54:09.263Z,13.52
2022-09-12T06:55:09.223Z,13.53
2022-09-12T06:56:09.244Z,13.54
2022-09-12T06:57:09.219Z,13.62
2022-09-12T06:58:09.150Z,13.63
2022-09-12T06:59:09.100Z,13.68
2022-09-12T07:00:09.066Z,13.70
2022-09-12T07:01:09.088Z,13.77
2022-09-12T07:02:10.115Z,13.74
2022-09-12T07:03:08.974Z,13.83
2022-09-12T07:04:08.939Z,13.87
2022-09-12T07:05:08.905Z,13.97
2022-09-12T07:06:08.891Z,13.92
2022-09-12T07:07:08.853Z,14.05
2022-09-12T07:08:08.911Z,14.00
2022-09-12T07:09:08.784Z,14.07
2022-09-12T07:10:08.787Z,14.15
2022-09-12T07:11:08.736Z,14.15
2022-09-12T07:12:08.688Z,14.20
2022-09-12T07:13:08.658Z,14.28
2022-09-12T07:14:08.762Z,14.20
2022-09-12T07:15:08.601Z,14.30
2022-09-12T07:16:08.566Z,14.22
2022-09-12T07:17:08.595Z,14.28
2022-09-12T07:18:08.683Z,14.28
2022-09-12T07:19:08.475Z,14.26
2022-09-12T07:20:08.436Z,14.32
2022-09-12T07:21:08.407Z,14.29
2022-09-12T07:22:08.381Z,14.37
2022-09-12T07:23:08.350Z,14.36
2022-09-12T07:24:08.379Z,14.45
2022-09-12T07:25:08.281Z,14.44
2022-09-12T07:26:08.251Z,14.45
2022-09-12T07:27:08.224Z,14.43
2022-09-12T07:28:08.194Z,14.53
2022-09-12T07:29:34.887Z,14.54
2022-09-12T07:30:08.140Z,14.50
2022-09-12T07:31:08.153Z,14.50
2022-09-12T07:32:08.065Z,14.60
2022-09-12T07:33:08.028Z,14.62
2022-09-12T07:34:08.006Z,14.59
2022-09-12T07:35:08.608Z,14.68
2022-09-12T07:36:07.940Z,14.69
2022-09-12T07:37:07.912Z,14.62
2022-09-12T07:38:07.888Z,14.79
2022-09-12T07:39:07.874Z,14.73
2022-09-12T07:40:07.917Z,14.77
2022-09-12T07:41:07.920Z,14.92
2022-09-12T07:42:07.763Z,14.86
2022-09-12T07:43:07.736Z,14.94
2022-09-12T07:44:07.694Z,14.92
2022-09-12T07:45:07.663Z,14.96
2022-09-12T07:46:07.691Z,15.00
2022-09-12T07:47:07.715Z,15.02
2022-09-12T07:48:07.645Z,15.11
2022-09-12T07:49:08.398Z,15.15
2022-09-12T07:50:07.516Z,15.15
2022-09-12T07:51:07.489Z,15.21
2022-09-12T07:52:07.456Z,15.19
2022-09-12T07:53:07.418Z,15.21
2022-09-12T07:54:07.594Z,15.21
2022-09-12T07:55:07.357Z,15.18
2022-09-12T07:56:07.330Z,15.24
2022-09-12T07:57:07.295Z,15.28
2022-09-12T07:58:07.270Z,15.29
2022-09-12T07:59:07.234Z,15.31
2022-09-12T08:01:39.325Z,15.27
2022-09-12T08:02:39.247Z,15.35
2022-09-12T08:03:39.188Z,15.29
2022-09-12T08:04:39.159Z,15.36
2022-09-12T08:05:39.131Z,15.36
2022-09-12T08:06:39.286Z,15.35
2022-09-12T08:07:39.067Z,15.39
2022-09-12T08:08:39.037Z,15.37
2022-09-12T08:09:39.007Z,15.37
2022-09-12T08:10:38.970Z,15.43
2022-09-12T08:11:38.952Z,15.46
2022-09-12T08:12:39.002Z,15.49
2022-09-12T08:13:52.974Z,15.47
2022-09-12T08:14:38.886Z,15.54
2022-09-12T08:15:38.880Z,15.64
2022-09-12T08:16:38.814Z,15.52
2022-09-12T08:17:38.762Z,15.67
2022-09-12T08:18:38.854Z,15.72
2022-09-12T08:19:38.698Z,15.70
2022-09-12T08:20:38.666Z,15.75
2022-09-12T08:21:38.630Z,15.79
2022-09-12T08:22:38.612Z,15.84
2022-09-12T08:23:38.577Z,15.83
2022-09-12T08:24:38.634Z,15.90
2022-09-12T08:25:38.511Z,15.76
2022-09-12T08:26:38.483Z,15.82
2022-09-12T08:27:38.456Z,15.84
2022-09-12T08:28:38.425Z,15.88
2022-09-12T08:29:38.449Z,15.97
2022-09-12T08:30:38.397Z,15.90
2022-09-12T08:31:38.331Z,15.97
2022-09-12T08:32:38.306Z,15.94
2022-09-12T08:33:38.268Z,16.08
2022-09-12T08:34:38.247Z,16.16
2022-09-12T08:35:38.267Z,16.26
2022-09-12T08:36:38.187Z,16.20
2022-09-12T08:37:38.152Z,16.26
2022-09-12T08:38:38.168Z,16.29
2022-09-12T08:39:38.188Z,16.29
2022-09-12T08:40:38.128Z,16.24
2022-09-12T08:41:38.037Z,16.26
2022-09-12T08:42:37.994Z,16.31
2022-09-12T08:43:37.976Z,16.46
2022-09-12T08:44:37.941Z,16.49
2022-09-12T08:45:37.976Z,16.49
2022-09-12T08:46:37.937Z,16.47
2022-09-12T08:47:37.851Z,16.54
2022-09-12T08:48:37.820Z,16.47
2022-09-12T08:49:37.789Z,16.53
2022-09-12T08:50:37.757Z,16.54
2022-09-12T08:51:37.851Z,16.64
2022-09-12T08:52:37.716Z,16.57
2022-09-12T08:53:37.667Z,16.60
2022-09-12T08:54:37.644Z,16.54
2022-09-12T08:55:37.608Z,16.54
2022-09-12T08:56:37.603Z,16.68
2022-09-12T08:57:37.725Z,16.75
2022-09-12T08:58:37.519Z,16.84
2022-09-12T08:59:37.485Z,16.71
2022-09-12T09:00:37.462Z,16.72
2022-09-12T09:01:37.500Z,16.84
2022-09-12T09:02:37.445Z,16.87
2022-09-12T09:03:37.462Z,16.83
2022-09-12T09:04:37.338Z,16.89
2022-09-12T09:05:37.310Z,16.87
2022-09-12T09:06:37.276Z,16.87
2022-09-12T09:07:37.300Z,16.89
2022-09-12T09:08:37.219Z,16.87
2022-09-12T09:09:37.268Z,16.89
2022-09-12T09:10:37.160Z,17.06
2022-09-12T09:11:37.141Z,17.20
2022-09-12T09:12:37.108Z,17.34
2022-09-12T09:13:37.073Z,17.34
2022-09-12T09:14:37.041Z,17.45
2022-09-12T09:15:37.140Z,17.38
2022-09-12T09:16:36.993Z,17.54
2022-09-12T09:17:36.950Z,17.57
2022-09-12T09:18:36.921Z,17.54
2022-09-12T09:19:36.894Z,17.57
2022-09-12T09:20:37.063Z,17.39
2022-09-12T09:21:36.837Z,17.44
2022-09-12T09:22:36.798Z,17.42
2022-09-12T09:23:36.779Z,17.44
2022-09-12T09:24:36.748Z,17.49
2022-09-12T09:25:36.713Z,17.63
2022-09-12T09:26:38.825Z,17.68
2022-09-12T09:27:40.957Z,17.64
2022-09-12T09:28:36.632Z,17.83
2022-09-12T09:29:36.595Z,17.83
2022-09-12T09:30:36.642Z,17.92
2022-09-12T09:31:36.758Z,17.97
2022-09-12T09:32:36.509Z,17.89
2022-09-12T09:33:36.487Z,17.97
2022-09-12T09:34:36.444Z,18.01
2022-09-12T09:35:36.840Z,17.95
2022-09-12T09:36:36.387Z,18.08
2022-09-12T09:37:36.452Z,18.22
2022-09-12T09:38:36.350Z,18.28
2022-09-12T09:39:36.363Z,18.31
2022-09-12T09:40:36.274Z,18.20
2022-09-12T09:41:36.297Z,18.15
2022-09-12T09:42:36.258Z,18.15
2022-09-12T09:43:36.259Z,18.16
2022-09-12T09:44:36.177Z,18.07
2022-09-12T09:45:36.123Z,18.05
2022-09-12T09:46:36.141Z,18.03
2022-09-12T09:47:36.085Z,18.08
2022-09-12T09:48:36.155Z,18.10
2022-09-12T09:49:36.043Z,18.13
2022-09-12T09:50:36.012Z,18.19
2022-09-12T09:51:36.964Z,18.19
2022-09-12T09:52:35.926Z,18.16
2022-09-12T09:53:35.909Z,18.28
2022-09-12T09:54:35.934Z,18.26
2022-09-12T09:55:35.880Z,18.37
2022-09-12T09:56:35.871Z,18.38
2022-09-12T09:57:35.784Z,18.52
2022-09-12T09:58:35.789Z,18.62
2022-09-12T09:59:35.781Z,18.65
2022-09-12T10:00:35.732Z,18.68
2022-09-12T10:01:35.677Z,18.80
2022-09-12T10:02:35.678Z,18.78
2022-09-12T10:03:35.809Z,18.92
2022-09-12T10:04:40.615Z,19.04
2022-09-12T10:05:35.547Z,18.93
2022-09-12T10:06:35.543Z,19.08
2022-09-12T10:07:35.499Z,19.22
2022-09-12T10:08:35.540Z,19.26
2022-09-12T10:09:35.489Z,19.31
2022-09-12T10:10:35.457Z,19.37
2022-09-12T10:11:35.397Z,19.36
2022-09-12T10:12:35.366Z,19.39
2022-09-12T10:13:35.408Z,19.47
2022-09-12T10:14:35.302Z,19.49
2022-09-12T10:15:36.174Z,19.40
2022-09-12T10:16:35.243Z,19.45
2022-09-12T10:17:35.204Z,19.44
2022-09-12T10:18:35.177Z,19.51
2022-09-12T10:19:35.159Z,19.66
2022-09-12T10:20:35.236Z,19.66
2022-09-12T10:21:35.109Z,19.76
2022-09-12T10:22:35.073Z,19.81
2022-09-12T10:23:35.160Z,19.74
2022-09-12T10:24:35.019Z,19.76
2022-09-12T10:25:35.233Z,19.76
2022-09-12T10:26:34.960Z,19.74
2022-09-12T10:27:34.954Z,19.76
2022-09-12T10:28:34.989Z,19.73
2022-09-12T10:29:34.894Z,19.74
2022-09-12T10:30:35.456Z,19.69
2022-09-12T10:31:35.072Z,19.82
2022-09-12T10:32:34.791Z,19.82
2022-09-12T10:33:34.767Z,19.89
2022-09-12T10:34:34.761Z,20.02
2022-09-12T10:35:34.711Z,20.10
2022-09-12T10:36:34.711Z,20.22
2022-09-12T10:37:34.727Z,20.14
2022-09-12T10:38:34.625Z,20.11
2022-09-12T10:39:34.608Z,20.10
2022-09-12T10:40:34.609Z,20.06
2022-09-12T10:41:34.573Z,20.10
2022-09-12T10:42:34.577Z,20.16
2022-09-12T10:43:34.495Z,20.18
2022-09-12T10:44:34.478Z,20.28
2022-09-12T10:45:34.440Z,20.36
2022-09-12T10:46:34.404Z,20.51
2022-09-12T10:47:34.451Z,20.63
2022-09-12T10:48:34.355Z,20.81
2022-09-12T10:49:34.323Z,21.02
2022-09-12T10:50:34.300Z,21.22
2022-09-12T10:51:34.275Z,21.50
2022-09-12T10:52:34.317Z,21.46
2022-09-12T10:53:34.835Z,21.51
2022-09-12T10:54:34.191Z,21.50
2022-09-12T10:55:34.203Z,21.40
2022-09-12T10:56:34.172Z,21.43
2022-09-12T10:57:34.182Z,21.39
2022-09-12T10:58:34.175Z,21.42
2022-09-12T10:59:34.079Z,21.33
2022-09-12T11:00:34.039Z,21.17
2022-09-12T11:01:34.163Z,21.00
2022-09-12T11:02:35.001Z,20.75
2022-09-12T11:03:34.021Z,20.62
2022-09-12T11:04:33.927Z,20.60
2022-09-12T11:05:33.915Z,20.63
2022-09-12T11:06:33.936Z,20.55
2022-09-12T11:07:33.851Z,20.24
2022-09-12T11:08:33.836Z,20.10
2022-09-12T11:09:33.849Z,19.99
2022-09-12T11:10:36.887Z,19.84
2022-09-12T11:11:33.781Z,19.89
2022-09-12T11:12:33.726Z,19.85
2022-09-12T11:13:33.688Z,19.86
2022-09-12T11:14:33.786Z,19.88
2022-09-12T11:15:33.722Z,19.92
2022-09-12T11:16:33.623Z,20.02
2022-09-12T11:17:33.579Z,20.06
2022-09-12T11:18:33.553Z,20.10
2022-09-12T11:19:33.542Z,20.03
2022-09-12T11:20:33.571Z,20.04
2022-09-12T11:21:33.482Z,20.06
2022-09-12T11:22:33.454Z,20.11
2022-09-12T11:23:33.427Z,20.11
2022-09-12T11:24:33.400Z,20.21
2022-09-12T11:25:33.487Z,20.43
2022-09-12T11:26:33.363Z,20.51
2022-09-12T11:27:33.315Z,20.62
2022-09-12T11:28:33.343Z,20.66
2022-09-12T11:29:33.322Z,20.77
2022-09-12T11:30:33.320Z,20.84
2022-09-12T11:31:33.296Z,20.93
2022-09-12T11:32:33.205Z,20.81
2022-09-12T11:33:33.169Z,20.85
2022-09-12T11:34:33.150Z,20.81
2022-09-12T11:35:33.112Z,20.70
2022-09-12T11:36:33.136Z,20.67
2022-09-12T11:37:33.126Z,20.67
2022-09-12T11:38:33.077Z,20.69
2022-09-12T11:39:33.004Z,20.77
2022-09-12T11:40:32.993Z,20.80
2022-09-12T11:41:32.959Z,20.80
2022-09-12T11:42:32.980Z,20.78
2022-09-12T11:43:32.891Z,20.81
2022-09-12T11:44:32.873Z,20.84
2022-09-12T11:45:32.855Z,20.88
2022-09-12T11:46:32.831Z,20.87
2022-09-12T11:47:32.826Z,20.99
2022-09-12T11:48:32.792Z,21.12
2022-09-12T11:49:35.582Z,21.07
2022-09-12T11:50:32.713Z,21.06
2022-09-12T11:51:32.670Z,21.18
2022-09-12T11:52:32.751Z,21.20
2022-09-12T11:53:32.620Z,21.25
2022-09-12T11:54:32.644Z,21.24
2022-09-12T11:55:32.568Z,21.36
2022-09-12T11:56:32.542Z,21.51
2022-09-12T11:57:32.540Z,21.64
2022-09-12T11:58:32.614Z,21.72
2022-09-12T11:59:32.461Z,21.76
2022-09-12T12:00:32.455Z,21.83
2022-09-12T12:01:32.411Z,21.88
2022-09-12T12:02:32.443Z,21.88
2022-09-12T12:03:32.495Z,21.76
2022-09-12T12:04:32.331Z,21.64
2022-09-12T12:05:32.314Z,21.77
2022-09-12T12:06:32.282Z,21.88
2022-09-12T12:07:32.280Z,22.10
2022-09-12T12:08:32.288Z,22.33
2022-09-12T12:09:32.244Z,22.32
2022-09-12T12:10:32.171Z,22.47
2022-09-12T12:11:32.203Z,22.65
2022-09-12T12:12:32.144Z,22.75
2022-09-12T12:13:32.153Z,22.78
2022-09-12T12:14:32.075Z,22.83
2022-09-12T12:15:32.122Z,22.90
2022-09-12T12:16:32.059Z,22.98
2022-09-12T12:17:32.041Z,23.02
2022-09-12T12:18:32.077Z,23.06
2022-09-12T12:19:31.955Z,23.15
2022-09-12T12:20:31.925Z,23.24
2022-09-12T12:21:31.899Z,23.12
2022-09-12T12:22:31.873Z,23.15
2022-09-12T12:23:31.852Z,23.13
2022-09-12T12:24:31.883Z,23.12
2022-09-12T12:25:31.793Z,23.09
2022-09-12T12:26:31.765Z,23.10
2022-09-12T12:27:31.744Z,23.17
2022-09-12T12:28:34.934Z,23.08
2022-09-12T12:29:32.065Z,23.15
2022-09-12T12:30:31.709Z,23.15
2022-09-12T12:31:31.684Z,23.23
2022-09-12T12:32:31.619Z,23.27
2022-09-12T12:33:31.603Z,23.40
2022-09-12T12:34:31.695Z,23.50
2022-09-12T12:35:31.549Z,23.46
2022-09-12T12:36:31.540Z,23.44
2022-09-12T12:37:31.491Z,23.36
2022-09-12T12:38:32.394Z,23.09
2022-09-12T12:39:31.445Z,22.98
2022-09-12T12:40:31.486Z,22.50
2022-09-12T12:41:31.397Z,22.23
2022-09-12T12:42:31.365Z,22.43
2022-09-12T12:43:31.346Z,22.45
2022-09-12T12:44:31.369Z,22.63
2022-09-12T12:45:31.356Z,22.75
2022-09-12T12:46:31.340Z,22.72
2022-09-12T12:47:31.304Z,22.84
2022-09-12T12:48:31.235Z,22.99
2022-09-12T12:49:31.197Z,23.02
2022-09-12T12:50:31.174Z,23.05
2022-09-12T12:51:31.210Z,23.08
2022-09-12T12:52:31.126Z,23.05
2022-09-12T12:53:31.101Z,22.99
2022-09-12T12:54:31.075Z,22.73